Time;durP1;ratioP1;P1;durP2;ratioP2;P2;SDS_P1;SDS_P2;PMS_P1;PMS_P2;Temp;Humidity;BMP_temperature;BMP_pressure;BME280_temperature;BME280_humidity;BME280_pressure;Samples;Min_cycle;Max_cycle;Signal;HPM_P1;HPM_P2
2023/05/20 00:00:08;;;;;;;9.85;5.50;;;11.80;99.90;;;;;;5154130;27;20045;-70
2023/05/20 00:02:34;;;;;;;12.77;5.43;;;11.80;99.90;;;;;;5153869;27;20101;-70
2023/05/20 00:05:00;;;;;;;8.65;5.65;;;11.80;99.90;;;;;;5136485;27;20042;-70
2023/05/20 00:07:26;;;;;;;9.00;5.88;;;11.80;99.90;;;;;;5135835;27;20117;-69
2023/05/20 00:09:51;;;;;;;10.80;5.05;;;11.80;99.90;;;;;;5154674;27;20042;-70
2023/05/20 00:12:17;;;;;;;9.38;5.72;;;11.80;99.90;;;;;;5136046;27;20549;-70
2023/05/20 00:14:43;;;;;;;7.78;5.50;;;11.80;99.90;;;;;;5118435;27;20054;-70
2023/05/20 00:17:09;;;;;;;7.40;4.78;;;11.70;99.90;;;;;;5135926;27;20043;-70
2023/05/20 00:19:34;;;;;;;7.10;4.78;;;11.70;99.90;;;;;;5153955;27;20257;-70
2023/05/20 00:22:00;;;;;;;6.45;4.65;;;11.70;99.90;;;;;;5135913;27;20057;-70
2023/05/20 00:24:26;;;;;;;9.20;5.63;;;11.70;99.90;;;;;;5154250;27;20042;-70
2023/05/20 00:26:52;;;;;;;8.50;5.25;;;11.70;99.90;;;;;;5136025;27;20130;-70
2023/05/20 00:29:20;;;;;;;10.80;5.47;;;11.60;99.90;;;;;;5153590;27;20090;-70
2023/05/20 00:31:46;;;;;;;10.35;5.50;;;11.60;99.90;;;;;;5153890;27;20130;-70
2023/05/20 00:34:12;;;;;;;12.07;6.28;;;11.60;99.90;;;;;;5153798;27;20130;-69
2023/05/20 00:36:37;;;;;;;8.23;4.90;;;11.60;99.90;;;;;;5135897;27;20039;-70
2023/05/20 00:39:03;;;;;;;10.05;5.10;;;11.60;99.90;;;;;;5153819;27;20673;-70
2023/05/20 00:41:29;;;;;;;10.85;6.18;;;11.50;99.90;;;;;;5154227;27;20412;-70
2023/05/20 00:43:55;;;;;;;7.45;5.50;;;11.50;99.90;;;;;;5135003;27;20043;-70
2023/05/20 00:46:22;;;;;;;8.55;5.93;;;11.50;99.90;;;;;;5153837;27;20042;-69
2023/05/20 00:48:49;;;;;;;10.55;6.07;;;11.50;99.90;;;;;;5155936;27;20049;-70
2023/05/20 00:51:15;;;;;;;10.18;6.00;;;11.40;99.90;;;;;;5157565;27;20051;-69
2023/05/20 00:53:42;;;;;;;9.30;4.70;;;11.40;99.90;;;;;;5157607;27;20066;-70
2023/05/20 00:56:08;;;;;;;12.90;6.22;;;11.30;99.90;;;;;;5157424;27;20042;-70
2023/05/20 00:58:35;;;;;;;11.82;6.22;;;11.30;99.90;;;;;;5157149;27;20423;-70
2023/05/20 01:01:01;;;;;;;16.00;6.70;;;11.30;99.90;;;;;;5157499;27;20459;-70
2023/05/20 01:03:28;;;;;;;7.50;6.07;;;11.30;99.90;;;;;;5157130;27;20043;-70
2023/05/20 01:05:54;;;;;;;10.73;5.85;;;11.20;99.90;;;;;;5157358;27;20050;-70
2023/05/20 01:08:21;;;;;;;6.07;4.93;;;11.20;99.90;;;;;;5157395;27;20039;-70
2023/05/20 01:10:50;;;;;;;9.55;6.60;;;11.20;99.90;;;;;;5157275;27;20042;-69
2023/05/20 01:13:20;;;;;;;9.52;5.22;;;11.20;99.90;;;;;;5157199;27;20481;-69
2023/05/20 01:15:48;;;;;;;12.48;5.68;;;11.20;99.90;;;;;;5158065;27;20050;-70
2023/05/20 01:18:19;;;;;;;9.65;6.25;;;11.10;99.90;;;;;;5138902;27;20050;-70
2023/05/20 01:20:49;;;;;;;7.85;6.13;;;11.10;99.90;;;;;;5157145;27;20046;-70
2023/05/20 01:23:16;;;;;;;7.70;5.30;;;11.10;99.90;;;;;;5157027;27;20039;-70
2023/05/20 01:25:41;;;;;;;6.18;5.22;;;11.10;99.90;;;;;;5121650;27;20051;-70
2023/05/20 01:28:08;;;;;;;10.65;6.03;;;11.00;99.90;;;;;;5156700;27;20103;-70
2023/05/20 01:30:43;;;;;;;10.90;5.40;;;11.10;99.90;;;;;;5157143;27;20204;-70
2023/05/20 01:33:11;;;;;;;5.05;4.55;;;11.00;99.90;;;;;;5156054;27;20049;-65
2023/05/20 01:35:39;;;;;;;8.50;5.72;;;11.00;99.90;;;;;;5156793;27;20050;-64
2023/05/20 01:38:06;;;;;;;10.98;6.18;;;11.00;99.90;;;;;;5156732;27;20522;-65
2023/05/20 01:40:33;;;;;;;8.32;5.75;;;10.90;99.90;;;;;;5138354;27;20130;-64
2023/05/20 01:43:01;;;;;;;8.15;4.97;;;10.90;99.90;;;;;;5156683;27;20031;-66
2023/05/20 01:45:27;;;;;;;11.70;5.65;;;10.90;99.90;;;;;;5156678;27;20048;-65
2023/05/20 01:47:53;;;;;;;8.80;5.03;;;10.90;99.90;;;;;;5156523;27;20034;-65
2023/05/20 01:50:18;;;;;;;5.35;4.72;;;10.90;99.90;;;;;;5138468;27;20043;-66
2023/05/20 01:52:44;;;;;;;7.45;5.50;;;10.90;99.90;;;;;;5156470;27;20050;-66
2023/05/20 01:55:10;;;;;;;12.50;6.53;;;10.90;99.90;;;;;;5156537;27;20043;-64
2023/05/20 01:57:36;;;;;;;9.48;5.38;;;10.90;99.90;;;;;;5156501;27;20046;-65
2023/05/20 02:00:02;;;;;;;8.52;5.15;;;10.90;99.90;;;;;;5155407;27;20049;-65
2023/05/20 02:02:28;;;;;;;6.55;4.88;;;10.80;99.90;;;;;;5155902;27;20488;-66
2023/05/20 02:04:54;;;;;;;8.95;5.55;;;10.80;99.90;;;;;;5156594;27;20050;-65
2023/05/20 02:07:20;;;;;;;8.02;5.93;;;10.80;99.90;;;;;;5156536;27;20593;-64
2023/05/20 02:09:46;;;;;;;7.28;4.78;;;10.80;99.90;;;;;;5156250;27;20041;-65
2023/05/20 02:12:15;;;;;;;5.97;4.80;;;10.90;99.90;;;;;;5156059;27;20062;-65
2023/05/20 02:14:46;;;;;;;12.52;5.18;;;10.80;99.90;;;;;;5138147;27;20082;-66
2023/05/20 02:17:15;;;;;;;9.27;5.05;;;10.80;99.90;;;;;;5156372;27;20051;-65
2023/05/20 02:19:41;;;;;;;9.43;6.43;;;10.80;99.90;;;;;;5156244;27;20038;-64
2023/05/20 02:22:07;;;;;;;9.18;5.45;;;10.80;99.90;;;;;;5156178;27;20050;-66
2023/05/20 02:24:33;;;;;;;8.48;4.97;;;10.80;99.90;;;;;;5155463;27;20057;-65
2023/05/20 02:26:59;;;;;;;10.32;5.05;;;10.80;99.90;;;;;;5156150;27;20078;-65
2023/05/20 02:29:24;;;;;;;12.05;5.95;;;10.70;99.90;;;;;;5155790;27;20076;-65
2023/05/20 02:31:50;;;;;;;12.43;5.20;;;10.80;99.90;;;;;;5156117;27;20464;-66
2023/05/20 02:34:19;;;;;;;9.80;5.45;;;10.70;99.90;;;;;;5156369;27;20126;-65
2023/05/20 02:36:45;;;;;;;6.85;5.03;;;10.70;99.90;;;;;;5155963;27;20046;-65
2023/05/20 02:39:11;;;;;;;8.93;5.95;;;10.70;99.90;;;;;;5137521;27;20073;-65
2023/05/20 02:41:37;;;;;;;5.80;5.20;;;10.70;99.90;;;;;;5155944;27;20043;-66
2023/05/20 02:44:03;;;;;;;10.35;5.25;;;10.70;99.90;;;;;;5119812;27;20398;-66
2023/05/20 02:46:28;;;;;;;9.43;5.43;;;10.70;99.90;;;;;;5155421;27;20039;-65
2023/05/20 02:48:54;;;;;;;7.32;5.45;;;10.70;99.90;;;;;;5155832;27;20050;-66
2023/05/20 02:51:20;;;;;;;6.75;4.40;;;10.70;99.90;;;;;;5155863;27;20045;-65
2023/05/20 02:53:46;;;;;;;6.97;5.13;;;10.70;99.90;;;;;;5155567;27;20512;-66
2023/05/20 02:56:12;;;;;;;9.10;5.18;;;10.70;99.90;;;;;;5155269;27;20103;-65
2023/05/20 02:58:38;;;;;;;9.23;6.60;;;10.70;99.90;;;;;;5155168;27;20043;-66
2023/05/20 03:01:04;;;;;;;8.38;6.25;;;10.70;99.90;;;;;;5155214;27;20046;-65
2023/05/20 03:03:30;;;;;;;8.15;5.10;;;10.70;99.90;;;;;;5155374;27;20455;-66
2023/05/20 03:05:56;;;;;;;5.75;5.13;;;10.60;99.90;;;;;;5155090;27;20043;-65
2023/05/20 03:08:22;;;;;;;7.13;4.95;;;10.60;99.90;;;;;;5155048;27;20475;-65
2023/05/20 03:10:48;;;;;;;8.95;6.30;;;10.60;99.90;;;;;;5154716;27;20053;-65
2023/05/20 03:13:14;;;;;;;10.10;5.40;;;10.60;99.90;;;;;;5154856;27;20051;-66
2023/05/20 03:15:41;;;;;;;10.05;4.90;;;10.60;99.90;;;;;;5154951;27;20137;-65
2023/05/20 03:18:09;;;;;;;4.38;3.97;;;10.60;99.90;;;;;;5154864;27;20113;-65
2023/05/20 03:20:37;;;;;;;5.90;3.45;;;10.50;99.90;;;;;;5154662;27;20042;-66
2023/05/20 03:23:03;;;;;;;6.63;4.55;;;10.60;99.90;;;;;;5154698;27;20047;-66
2023/05/20 03:25:29;;;;;;;5.07;4.45;;;10.60;99.90;;;;;;5154754;27;20042;-66
2023/05/20 03:27:57;;;;;;;6.05;4.47;;;10.60;99.90;;;;;;5136153;27;20534;-65
2023/05/20 03:30:23;;;;;;;6.78;4.40;;;10.70;99.90;;;;;;5154896;27;20043;-65
2023/05/20 03:32:49;;;;;;;7.05;4.55;;;10.70;99.90;;;;;;5154390;27;20087;-66
2023/05/20 03:35:15;;;;;;;6.03;4.47;;;10.70;99.90;;;;;;5154659;27;20166;-65
2023/05/20 03:37:40;;;;;;;6.40;4.28;;;10.70;99.90;;;;;;5119430;27;20082;-65
2023/05/20 03:40:09;;;;;;;4.45;3.97;;;10.70;99.90;;;;;;5154937;27;20054;-65
2023/05/20 03:42:36;;;;;;;4.75;3.80;;;10.70;99.90;;;;;;5154381;27;20455;-65
2023/05/20 03:45:02;;;;;;;4.10;3.38;;;10.70;99.90;;;;;;5154535;27;20468;-65
2023/05/20 03:47:27;;;;;;;6.93;4.03;;;10.70;99.90;;;;;;5119624;27;20102;-65
2023/05/20 03:49:53;;;;;;;4.25;3.47;;;10.70;99.90;;;;;;5154293;27;20150;-66
2023/05/20 03:52:19;;;;;;;4.07;3.70;;;10.70;99.90;;;;;;5154330;27;20118;-67
2023/05/20 03:54:45;;;;;;;5.30;3.70;;;10.70;99.90;;;;;;5154719;27;20133;-65
2023/05/20 03:57:10;;;;;;;5.18;3.70;;;10.80;99.90;;;;;;5154267;27;20045;-66
2023/05/20 03:59:36;;;;;;;8.25;4.50;;;10.80;99.90;;;;;;5154421;27;20088;-65
2023/05/20 04:02:03;;;;;;;5.03;3.35;;;10.80;99.90;;;;;;5154578;27;20050;-65
2023/05/20 04:04:29;;;;;;;4.65;3.63;;;10.80;99.90;;;;;;5154567;27;20042;-65
2023/05/20 04:06:55;;;;;;;4.78;3.50;;;10.80;99.90;;;;;;5154170;27;20049;-65
2023/05/20 04:09:21;;;;;;;4.70;3.05;;;10.80;99.90;;;;;;5153762;27;20054;-65
2023/05/20 04:11:48;;;;;;;10.27;3.75;;;10.90;99.90;;;;;;5153785;27;20082;-65
2023/05/20 04:14:14;;;;;;;4.68;3.03;;;10.90;99.90;;;;;;5154750;27;20034;-67
2023/05/20 04:16:40;;;;;;;4.63;3.33;;;11.00;99.90;;;;;;5154035;27;20047;-66
2023/05/20 04:19:06;;;;;;;3.63;2.88;;;11.00;99.90;;;;;;5153739;27;20407;-65
2023/05/20 04:21:31;;;;;;;5.47;3.42;;;11.10;99.90;;;;;;5154547;27;20042;-65
2023/05/20 04:23:57;;;;;;;5.65;3.17;;;11.10;99.90;;;;;;5156570;27;20039;-65
2023/05/20 04:26:23;;;;;;;4.60;3.00;;;11.20;99.90;;;;;;5158534;27;20129;-65
2023/05/20 04:28:49;;;;;;;6.05;3.72;;;11.20;99.90;;;;;;5158512;27;20059;-65
2023/05/20 04:31:15;;;;;;;3.38;2.63;;;11.30;99.90;;;;;;5158070;27;20051;-65
2023/05/20 04:33:41;;;;;;;3.95;2.33;;;11.30;99.90;;;;;;5158375;27;20038;-66
2023/05/20 04:36:10;;;;;;;10.40;3.15;;;11.40;99.90;;;;;;5158148;27;20053;-65
2023/05/20 04:38:37;;;;;;;2.85;2.05;;;11.50;99.90;;;;;;5158037;27;20103;-65
2023/05/20 04:41:03;;;;;;;3.47;2.80;;;11.50;99.90;;;;;;5157991;27;20053;-66
2023/05/20 04:43:29;;;;;;;2.50;2.30;;;11.60;99.90;;;;;;5157874;27;20035;-65
2023/05/20 04:46:04;;;;;;;4.40;2.58;;;11.70;99.90;;;;;;5157695;27;20088;-65
2023/05/20 04:48:31;;;;;;;5.25;2.90;;;11.70;99.90;;;;;;5140795;27;20076;-67
2023/05/20 04:50:56;;;;;;;6.00;3.03;;;11.80;99.90;;;;;;5157762;27;20095;-66
2023/05/20 04:53:22;;;;;;;4.25;2.80;;;11.80;99.90;;;;;;5157272;27;20046;-68
2023/05/20 04:55:52;;;;;;;4.03;2.72;;;11.80;99.90;;;;;;5157662;27;20034;-65
2023/05/20 04:58:18;;;;;;;3.53;3.00;;;11.80;99.90;;;;;;5139437;27;20042;-65
2023/05/20 05:00:45;;;;;;;3.42;2.65;;;11.90;99.90;;;;;;5122573;27;20061;-66
2023/05/20 05:03:14;;;;;;;4.88;2.70;;;11.90;99.90;;;;;;5157710;27;20061;-67
2023/05/20 05:05:41;;;;;;;3.05;2.35;;;12.00;99.90;;;;;;5157263;27;20051;-65
2023/05/20 05:08:07;;;;;;;2.30;2.10;;;12.00;99.90;;;;;;5157295;27;20082;-66
2023/05/20 05:10:34;;;;;;;3.53;1.85;;;12.00;99.90;;;;;;5157140;27;20482;-65
2023/05/20 05:13:00;;;;;;;4.60;2.40;;;12.10;99.90;;;;;;5139073;27;20435;-68
2023/05/20 05:15:26;;;;;;;3.65;2.33;;;12.10;99.90;;;;;;5139339;27;20081;-65
2023/05/20 05:17:52;;;;;;;6.15;3.25;;;12.20;99.90;;;;;;5138539;27;20089;-67
2023/05/20 05:20:17;;;;;;;4.53;2.42;;;12.30;99.90;;;;;;5156957;27;20039;-65
2023/05/20 05:22:44;;;;;;;3.88;2.47;;;12.30;99.90;;;;;;5157316;27;20043;-66
2023/05/20 05:25:10;;;;;;;3.20;2.55;;;12.40;99.90;;;;;;5156902;27;20042;-66
2023/05/20 05:27:37;;;;;;;4.28;2.25;;;12.60;99.90;;;;;;5156642;27;20110;-66
2023/05/20 05:30:05;;;;;;;3.45;2.25;;;12.70;99.90;;;;;;5156776;27;20050;-65
2023/05/20 05:32:31;;;;;;;3.65;2.15;;;12.80;99.90;;;;;;5156684;27;20047;-66
2023/05/20 05:34:57;;;;;;;3.05;2.05;;;12.90;99.90;;;;;;5155175;27;20074;-67
2023/05/20 05:37:23;;;;;;;3.00;2.15;;;13.10;99.90;;;;;;5156604;27;20395;-66
2023/05/20 05:39:48;;;;;;;2.67;2.05;;;13.20;99.90;;;;;;5156516;27;20047;-65
2023/05/20 05:42:14;;;;;;;2.00;1.80;;;13.40;99.90;;;;;;5156456;27;20050;-68
2023/05/20 05:44:40;;;;;;;2.03;1.60;;;13.50;99.90;;;;;;5137858;27;20513;-65
2023/05/20 05:47:06;;;;;;;2.00;1.80;;;13.50;99.90;;;;;;5156621;27;20042;-66
2023/05/20 05:49:32;;;;;;;3.50;2.03;;;13.60;99.90;;;;;;5156286;27;20038;-67
2023/05/20 05:51:58;;;;;;;1.75;1.63;;;13.60;99.90;;;;;;5156613;27;20117;-66
2023/05/20 05:54:24;;;;;;;2.50;2.20;;;13.70;99.90;;;;;;5156389;27;20078;-65
2023/05/20 05:56:51;;;;;;;3.33;2.17;;;13.70;99.90;;;;;;5138280;27;20053;-66
2023/05/20 05:59:16;;;;;;;2.80;1.90;;;13.80;99.90;;;;;;5156346;27;20479;-67
2023/05/20 06:01:42;;;;;;;2.03;1.85;;;13.80;99.90;;;;;;5156113;27;20045;-64
2023/05/20 06:04:08;;;;;;;2.80;1.98;;;13.80;99.90;;;;;;5156259;27;20042;-66
2023/05/20 06:06:33;;;;;;;2.58;1.75;;;13.90;99.90;;;;;;5156169;27;20047;-66
2023/05/20 06:08:59;;;;;;;4.28;1.85;;;14.00;99.90;;;;;;5156111;27;20043;-67
2023/05/20 06:11:25;;;;;;;2.67;1.90;;;14.10;99.90;;;;;;5155760;27;20093;-65
2023/05/20 06:13:51;;;;;;;4.85;1.52;;;14.10;99.90;;;;;;5156172;27;20071;-66
2023/05/20 06:16:17;;;;;;;2.03;1.40;;;14.20;99.90;;;;;;5156173;27;20046;-66
2023/05/20 06:18:44;;;;;;;4.30;1.90;;;14.30;99.90;;;;;;5156234;27;20193;-65
2023/05/20 06:21:10;;;;;;;5.47;2.10;;;14.50;99.90;;;;;;5155948;27;20103;-65
2023/05/20 06:23:36;;;;;;;4.45;1.67;;;14.60;99.90;;;;;;5155577;27;20050;-65
2023/05/20 06:26:02;;;;;;;2.13;1.50;;;14.70;99.90;;;;;;5155977;27;20051;-65
2023/05/20 06:28:29;;;;;;;2.58;1.67;;;14.80;99.90;;;;;;5155863;27;20194;-66
2023/05/20 06:30:55;;;;;;;2.40;1.60;;;15.40;99.90;;;;;;5155715;27;20133;-65
2023/05/20 06:33:26;;;;;;;3.45;1.60;;;16.60;99.90;;;;;;5137547;27;20119;-67
2023/05/20 06:35:54;;;;;;;1.92;1.40;;;17.90;99.90;;;;;;5156289;27;20046;-65
2023/05/20 06:38:20;;;;;;;3.45;1.50;;;18.30;98.00;;;;;;5155637;27;20046;-65
2023/05/20 06:40:47;;;;;;;4.82;1.95;;;19.00;98.90;;;;;;5155501;27;20043;-65
2023/05/20 06:43:13;;;;;;;3.90;1.75;;;18.90;96.30;;;;;;5155511;27;20078;-65
2023/05/20 06:45:39;;;;;;;3.22;1.60;;;19.50;96.30;;;;;;5154891;27;20119;-65
2023/05/20 06:48:06;;;;;;;2.05;1.55;;;19.70;96.00;;;;;;5156139;27;20050;-66
2023/05/20 06:50:32;;;;;;;2.97;1.50;;;20.10;93.70;;;;;;5155305;27;20046;-65
2023/05/20 06:52:57;;;;;;;1.70;1.38;;;19.80;94.80;;;;;;5137114;27;20047;-62
2023/05/20 06:55:23;;;;;;;2.75;1.50;;;20.20;95.10;;;;;;5155249;27;20134;-66
2023/05/20 06:57:49;;;;;;;2.08;1.25;;;20.50;94.20;;;;;;5137413;27;20111;-65
2023/05/20 07:00:15;;;;;;;2.33;1.10;;;20.50;94.20;;;;;;5155100;27;20468;-65
2023/05/20 07:02:42;;;;;;;2.75;1.50;;;20.80;93.70;;;;;;5154731;27;20085;-65
2023/05/20 07:05:08;;;;;;;2.53;1.48;;;21.10;92.80;;;;;;5154940;27;20517;-65
2023/05/20 07:07:34;;;;;;;1.50;1.40;;;21.10;92.60;;;;;;5154901;27;20095;-65
2023/05/20 07:10:00;;;;;;;2.20;1.60;;;21.20;92.30;;;;;;5154670;27;20046;-65
2023/05/20 07:12:26;;;;;;;3.58;2.28;;;21.80;91.60;;;;;;5154809;27;20042;-64
2023/05/20 07:14:51;;;;;;;7.22;1.67;;;21.70;90.70;;;;;;5155021;27;20127;-67
2023/05/20 07:17:17;;;;;;;2.88;1.50;;;21.60;90.50;;;;;;5136210;27;20038;-65
2023/05/20 07:19:43;;;;;;;3.70;1.75;;;21.80;90.50;;;;;;5154417;27;20038;-65
2023/05/20 07:22:08;;;;;;;1.95;1.75;;;21.80;90.20;;;;;;5154643;27;20098;-65
2023/05/20 07:24:36;;;;;;;1.88;1.20;;;21.40;90.30;;;;;;5154680;27;20412;-65
2023/05/20 07:27:01;;;;;;;2.42;1.48;;;22.10;90.50;;;;;;5154577;27;20490;-65
2023/05/20 07:29:27;;;;;;;2.60;1.40;;;22.10;89.50;;;;;;5135866;27;20046;-64
2023/05/20 07:31:53;;;;;;;2.65;1.50;;;22.40;88.70;;;;;;5154607;27;20051;-65
2023/05/20 07:34:19;;;;;;;3.28;2.20;;;22.70;88.60;;;;;;5136182;27;20118;-65
2023/05/20 07:36:45;;;;;;;2.60;1.85;;;22.30;88.60;;;;;;5154366;27;20478;-64
2023/05/20 07:39:10;;;;;;;6.07;1.95;;;22.80;88.50;;;;;;5136522;27;20053;-66
2023/05/20 07:41:37;;;;;;;2.22;1.30;;;23.00;88.00;;;;;;5154742;27;20448;-64
2023/05/20 07:44:07;;;;;;;4.63;1.80;;;23.20;87.80;;;;;;5154246;27;20046;-64
2023/05/20 07:46:34;;;;;;;1.67;1.58;;;23.00;84.80;;;;;;5154764;27;20151;-65
2023/05/20 07:48:59;;;;;;;1.55;1.45;;;23.20;86.00;;;;;;5154602;27;20057;-65
2023/05/20 07:51:25;;;;;;;2.78;1.92;;;22.60;87.40;;;;;;5136122;27;20042;-66
2023/05/20 07:53:51;;;;;;;1.88;1.77;;;22.50;87.60;;;;;;5136298;27;20474;-66
2023/05/20 07:56:16;;;;;;;4.88;1.80;;;22.80;87.20;;;;;;5154423;27;20471;-65
2023/05/20 07:58:42;;;;;;;2.72;1.60;;;22.10;87.40;;;;;;5135213;27;20051;-65
2023/05/20 08:01:08;;;;;;;1.92;1.73;;;22.30;86.90;;;;;;5154021;27;20125;-64
2023/05/20 08:03:35;;;;;;;3.30;1.85;;;22.80;86.60;;;;;;5135367;27;20095;-64
2023/05/20 08:06:02;;;;;;;3.60;1.83;;;23.20;86.80;;;;;;5153926;27;20471;-65
2023/05/20 08:08:29;;;;;;;2.50;1.70;;;23.20;83.60;;;;;;5136407;27;20039;-65
2023/05/20 08:10:55;;;;;;;4.13;2.00;;;23.00;85.00;;;;;;5135943;27;20511;-64
2023/05/20 08:13:21;;;;;;;2.85;2.20;;;22.90;85.60;;;;;;5135570;27;20082;-66
2023/05/20 08:15:47;;;;;;;5.80;1.92;;;22.50;85.50;;;;;;5154016;27;20050;-65
2023/05/20 08:18:14;;;;;;;1.98;1.77;;;23.00;85.70;;;;;;5154088;27;20054;-64
2023/05/20 08:20:41;;;;;;;4.50;1.83;;;22.90;86.00;;;;;;5153974;27;20121;-65
2023/05/20 08:23:07;;;;;;;4.07;2.05;;;23.00;86.50;;;;;;5154616;27;20038;-65
2023/05/20 08:25:33;;;;;;;5.45;1.70;;;23.20;86.70;;;;;;5154481;27;20065;-65
2023/05/20 08:28:02;;;;;;;2.47;1.77;;;22.80;86.10;;;;;;5153893;27;20478;-66
2023/05/20 08:30:29;;;;;;;5.72;2.13;;;23.00;87.00;;;;;;5153970;27;20084;-65
2023/05/20 08:32:55;;;;;;;3.70;1.98;;;22.60;85.60;;;;;;5136408;27;20462;-65
2023/05/20 08:35:21;;;;;;;1.42;1.33;;;22.70;87.20;;;;;;5135612;27;20046;-66
2023/05/20 08:37:47;;;;;;;3.08;2.15;;;22.90;87.30;;;;;;5153938;27;20439;-66
2023/05/20 08:40:14;;;;;;;1.88;1.70;;;22.70;87.10;;;;;;5135851;27;20047;-65
2023/05/20 08:42:43;;;;;;;4.55;1.73;;;23.10;86.00;;;;;;5153764;27;20043;-65
2023/05/20 08:45:16;;;;;;;2.58;1.67;;;22.80;85.80;;;;;;5153861;27;20134;-65
2023/05/20 08:47:42;;;;;;;2.63;2.08;;;22.40;86.00;;;;;;5153728;27;20088;-65
2023/05/20 08:50:10;;;;;;;3.95;2.95;;;21.70;86.80;;;;;;5135464;27;20047;-65
2023/05/20 08:52:39;;;;;;;4.10;2.17;;;21.80;88.60;;;;;;5154036;27;20047;-65
2023/05/20 08:55:08;;;;;;;2.35;1.85;;;22.40;87.50;;;;;;5153647;27;20126;-65
2023/05/20 08:57:35;;;;;;;3.35;1.90;;;22.70;86.80;;;;;;5153627;27;20135;-65
2023/05/20 09:00:08;;;;;;;2.72;1.83;;;22.90;87.00;;;;;;5154187;27;20042;-66
2023/05/20 09:02:37;;;;;;;;;;;23.00;86.30;;;;;;5136609;27;20051;-65
2023/05/20 09:05:03;;;;;;;3.75;2.22;;;23.00;85.20;;;;;;5135215;27;19962;-65
2023/05/20 09:07:30;;;;;;;2.90;1.95;;;23.00;86.20;;;;;;5135844;27;20047;-66
2023/05/20 09:09:57;;;;;;;3.10;2.42;;;22.80;86.50;;;;;;5120463;27;20078;-64
2023/05/20 09:12:23;;;;;;;2.83;2.22;;;22.40;86.60;;;;;;5157423;27;20043;-65
2023/05/20 09:14:49;;;;;;;3.83;2.10;;;22.80;87.00;;;;;;5138560;27;20058;-64
2023/05/20 09:17:16;;;;;;;2.38;2.08;;;23.00;83.30;;;;;;5138873;27;20075;-66
2023/05/20 09:19:42;;;;;;;3.95;2.45;;;23.50;85.70;;;;;;5138725;27;20479;-65
2023/05/20 09:22:08;;;;;;;4.65;2.13;;;23.30;84.60;;;;;;5138539;27;20074;-64
2023/05/20 09:24:33;;;;;;;2.95;2.17;;;23.30;83.50;;;;;;5156819;27;20038;-64
2023/05/20 09:26:59;;;;;;;2.05;1.85;;;23.40;83.60;;;;;;5156484;27;20508;-66
2023/05/20 09:29:25;;;;;;;3.83;2.10;;;22.50;81.70;;;;;;5156796;27;20536;-64
2023/05/20 09:31:52;;;;;;;2.45;2.10;;;22.50;84.40;;;;;;5156640;27;20093;-65
2023/05/20 09:34:20;;;;;;;5.25;2.40;;;22.60;84.70;;;;;;5157021;27;20118;-65
2023/05/20 09:36:49;;;;;;;3.35;2.38;;;22.30;84.40;;;;;;5156406;27;20497;-64
2023/05/20 09:39:22;;;;;;;4.30;2.38;;;22.80;84.70;;;;;;5156661;27;20046;-65
2023/05/20 09:42:10;;;;;;;2.33;2.00;;;22.60;84.80;;;;;;5156840;27;20058;-65
2023/05/20 09:44:37;;;;;;;2.35;2.15;;;22.80;84.30;;;;;;5137984;27;20082;-66
2023/05/20 09:47:06;;;;;;;2.22;2.03;;;22.90;83.30;;;;;;5157122;27;20050;-65
2023/05/20 09:49:33;;;;;;;4.63;2.10;;;22.60;83.70;;;;;;5138742;27;20039;-64
2023/05/20 09:52:00;;;;;;;6.15;2.45;;;23.00;84.50;;;;;;5156701;27;20046;-65
2023/05/20 09:54:27;;;;;;;4.03;2.10;;;23.00;84.30;;;;;;5138492;27;20046;-64
2023/05/20 09:56:54;;;;;;;4.15;1.92;;;23.30;84.10;;;;;;5156542;27;20103;-64
2023/05/20 09:59:21;;;;;;;2.78;2.40;;;23.40;83.70;;;;;;5138037;27;20066;-65
2023/05/20 10:01:46;;;;;;;4.65;2.30;;;23.40;83.10;;;;;;5156152;27;20118;-64
2023/05/20 10:04:16;;;;;;;2.72;2.15;;;23.70;84.80;;;;;;5138128;27;20047;-65
2023/05/20 10:07:06;;;;;;;4.72;2.50;;;23.60;83.50;;;;;;5156496;27;20054;-65
2023/05/20 10:09:38;;;;;;;4.60;2.25;;;23.90;83.20;;;;;;5155805;27;20402;-65
2023/05/20 10:12:12;;;;;;;2.88;2.25;;;23.70;82.60;;;;;;5156025;27;20038;-65
2023/05/20 10:15:02;;;;;;;2.25;2.00;;;23.60;82.90;;;;;;5156469;27;20439;-64
2023/05/20 10:17:43;;;;;;;6.65;2.88;;;23.50;82.70;;;;;;5156316;27;20082;-63
2023/05/20 10:20:10;;;;;;;3.67;2.45;;;23.80;82.90;;;;;;5155623;27;20042;-65
2023/05/20 10:22:38;;;;;;;4.28;2.15;;;23.80;81.20;;;;;;5155545;27;20515;-64
2023/05/20 10:25:06;;;;;;;4.65;2.72;;;23.70;79.30;;;;;;5155985;27;20081;-63
2023/05/20 10:27:46;;;;;;;2.55;2.35;;;23.30;80.70;;;;;;5155470;27;20085;-63
2023/05/20 10:30:19;;;;;;;2.72;2.42;;;22.50;81.40;;;;;;5120218;27;20053;-66
2023/05/20 10:32:52;;;;;;;3.67;2.47;;;22.10;81.20;;;;;;5156142;27;20042;-65
2023/05/20 10:35:25;;;;;;;5.93;2.53;;;21.80;81.80;;;;;;5155676;27;20043;-65
2023/05/20 10:37:53;;;;;;;2.67;2.05;;;21.80;81.60;;;;;;5155476;27;20075;-64
2023/05/20 10:40:21;;;;;;;2.83;2.13;;;21.80;81.90;;;;;;5155607;27;20038;-65
2023/05/20 10:42:47;;;;;;;3.30;2.35;;;21.60;83.40;;;;;;5155314;27;20486;-64
2023/05/20 10:45:27;;;;;;;5.03;2.25;;;21.10;83.40;;;;;;5155392;27;20113;-64
2023/05/20 10:47:59;;;;;;;3.70;3.33;;;20.90;84.60;;;;;;5136979;27;20171;-64
2023/05/20 10:50:32;;;;;;;2.60;2.10;;;21.10;84.30;;;;;;5155059;27;20051;-66
2023/05/20 10:53:05;;;;;;;3.90;2.75;;;21.60;82.10;;;;;;5155535;27;20039;-64
2023/05/20 10:55:37;;;;;;;;;;;21.10;83.80;;;;;;5155613;27;20479;-65
2023/05/20 10:58:04;;;;;;;4.88;2.40;;;21.10;87.10;;;;;;5155471;27;19926;-64
2023/05/20 11:00:33;;;;;;;4.30;2.60;;;20.90;84.80;;;;;;5155653;27;20042;-65
2023/05/20 11:03:00;;;;;;;3.95;2.90;;;20.70;85.00;;;;;;5154831;27;20035;-64
2023/05/20 11:05:26;;;;;;;2.60;2.22;;;20.60;85.10;;;;;;5154925;27;20050;-63
2023/05/20 11:08:01;;;;;;;6.20;3.03;;;20.60;84.60;;;;;;5155023;27;20042;-64
2023/05/20 11:10:26;;;;;;;3.03;2.58;;;20.70;86.60;;;;;;5155107;27;20042;-66
2023/05/20 11:12:52;;;;;;;4.80;2.65;;;20.90;86.20;;;;;;5154877;27;20442;-65
2023/05/20 11:15:18;;;;;;;3.38;2.20;;;20.90;85.00;;;;;;5136436;27;20052;-64
2023/05/20 11:17:58;;;;;;;2.75;2.22;;;21.00;85.00;;;;;;5154723;27;20046;-64
2023/05/20 11:20:24;;;;;;;5.93;2.22;;;20.80;84.90;;;;;;5154735;27;20042;-65
2023/05/20 11:22:51;;;;;;;3.38;2.50;;;20.70;83.50;;;;;;5154658;27;20046;-66
2023/05/20 11:25:17;;;;;;;3.45;2.40;;;20.50;83.80;;;;;;5154833;27;20118;-65
2023/05/20 11:27:44;;;;;;;2.83;2.20;;;20.50;84.10;;;;;;5136885;27;20086;-64
2023/05/20 11:30:17;;;;;;;3.15;1.98;;;20.40;83.20;;;;;;5154751;27;20069;-65
2023/05/20 11:33:02;;;;;;;2.40;2.17;;;20.70;84.00;;;;;;5154617;27;20047;-65
2023/05/20 11:35:31;;;;;;;4.30;1.85;;;20.70;86.20;;;;;;5136589;27;20422;-64
2023/05/20 11:38:00;;;;;;;6.55;2.00;;;20.50;84.40;;;;;;5154599;27;20050;-65
2023/05/20 11:40:26;;;;;;;3.45;2.00;;;20.40;83.70;;;;;;5154664;27;20042;-66
2023/05/20 11:42:57;;;;;;;3.92;2.10;;;20.20;84.30;;;;;;5154390;27;20042;-65
2023/05/20 11:45:23;;;;;;;3.22;1.90;;;20.30;85.80;;;;;;5154535;27;20064;-66
2023/05/20 11:48:02;;;;;;;3.00;2.13;;;20.40;85.30;;;;;;5136553;27;20344;-64
2023/05/20 11:50:32;;;;;;;2.47;2.03;;;20.50;84.00;;;;;;5154512;27;20114;-64
2023/05/20 11:53:01;;;;;;;2.78;2.22;;;20.40;83.80;;;;;;5154368;27;20038;-65
2023/05/20 11:55:26;;;;;;;3.80;2.10;;;20.60;83.20;;;;;;5154411;27;20456;-66
2023/05/20 11:57:53;;;;;;;3.03;2.45;;;20.80;84.30;;;;;;5154640;27;20038;-66
2023/05/20 12:00:19;;;;;;;2.90;2.47;;;20.90;83.80;;;;;;5136042;27;20118;-64
2023/05/20 12:02:45;;;;;;;2.97;2.00;;;21.00;83.20;;;;;;5153786;27;20050;-64
2023/05/20 12:05:12;;;;;;;5.00;2.63;;;20.90;83.20;;;;;;5153743;27;20475;-66
2023/05/20 12:07:38;;;;;;;3.17;2.10;;;20.90;83.90;;;;;;5154338;27;20082;-65
2023/05/20 12:10:04;;;;;;;4.07;2.22;;;20.90;83.10;;;;;;5154129;27;20042;-65
2023/05/20 12:12:30;;;;;;;2.75;1.88;;;21.00;83.40;;;;;;5119251;27;20497;-65
2023/05/20 12:14:56;;;;;;;3.40;1.95;;;20.80;81.60;;;;;;5154298;27;20118;-64
2023/05/20 12:17:21;;;;;;;4.35;2.10;;;20.70;82.10;;;;;;5154469;27;20355;-65
2023/05/20 12:19:47;;;;;;;3.55;2.10;;;20.80;81.70;;;;;;5154194;27;20122;-65
2023/05/20 12:22:13;;;;;;;3.25;2.20;;;20.80;82.10;;;;;;5154581;27;20049;-63
2023/05/20 12:24:38;;;;;;;6.78;2.13;;;21.00;81.70;;;;;;5153922;27;20547;-64
2023/05/20 12:27:05;;;;;;;3.40;2.13;;;21.20;83.40;;;;;;5153580;27;20073;-64
2023/05/20 12:29:31;;;;;;;2.70;2.25;;;21.10;83.90;;;;;;5153662;27;20125;-63
2023/05/20 12:31:57;;;;;;;4.05;2.05;;;20.90;83.30;;;;;;5136032;27;20136;-66
2023/05/20 12:34:22;;;;;;;2.38;2.17;;;20.70;83.60;;;;;;5153821;27;20058;-64
2023/05/20 12:36:48;;;;;;;4.55;2.40;;;20.60;83.70;;;;;;5154252;27;20043;-64
2023/05/20 12:39:16;;;;;;;3.00;2.00;;;20.60;84.30;;;;;;5154082;27;20129;-64
2023/05/20 12:41:42;;;;;;;4.60;2.28;;;20.70;83.20;;;;;;5136140;27;20486;-67
2023/05/20 12:44:08;;;;;;;2.15;1.90;;;20.80;83.30;;;;;;5154713;27;20043;-65